createdAt,value
2022-09-30T00:00:30.604Z,95.23
2022-09-30T00:01:30.831Z,95.13
2022-09-30T00:02:30.884Z,95.03
2022-09-30T00:03:30.984Z,94.93
2022-09-30T00:04:31.107Z,95.34
2022-09-30T00:05:31.240Z,95.34
2022-09-30T00:06:31.401Z,95.03
2022-09-30T00:07:31.499Z,95.23
2022-09-30T00:08:31.826Z,95.13
2022-09-30T00:09:31.804Z,95.44
2022-09-30T00:10:31.993Z,95.13
2022-09-30T00:11:32.153Z,95.13
2022-09-30T00:12:32.270Z,95.64
2022-09-30T00:13:32.481Z,95.64
2022-09-30T00:14:32.585Z,94.62
2022-09-30T00:15:32.553Z,95.23
2022-09-30T00:16:32.788Z,95.13
2022-09-30T00:17:32.806Z,95.18
2022-09-30T00:18:33.159Z,95.34
2022-09-30T00:19:33.064Z,95.03
2022-09-30T00:20:33.345Z,94.87
2022-09-30T00:21:33.334Z,95.23
2022-09-30T00:22:33.513Z,95.38
2022-09-30T00:23:33.568Z,95.34
2022-09-30T00:24:33.692Z,95.13
2022-09-30T00:25:33.894Z,95.75
2022-09-30T00:26:33.991Z,95.64
2022-09-30T00:27:34.217Z,95.18
2022-09-30T00:28:34.197Z,95.07
2022-09-30T00:29:34.313Z,95.07
2022-09-30T00:30:34.538Z,95.07
2022-09-30T00:31:34.634Z,95.23
2022-09-30T00:32:34.822Z,95.18
2022-09-30T00:33:34.835Z,95.28
2022-09-30T00:34:34.993Z,95.13
2022-09-30T00:35:35.198Z,95.13
2022-09-30T00:36:35.241Z,95.44
2022-09-30T00:37:35.360Z,95.38
2022-09-30T00:38:35.492Z,95.75
2022-09-30T00:39:35.627Z,95.23
2022-09-30T00:40:35.784Z,95.34
2022-09-30T00:41:35.876Z,95.13
2022-09-30T00:42:36.000Z,95.13
2022-09-30T00:43:36.221Z,95.54
2022-09-30T00:44:36.290Z,95.54
2022-09-30T00:45:36.458Z,95.75
2022-09-30T00:46:39.785Z,95.64
2022-09-30T00:47:36.689Z,95.85
2022-09-30T00:48:36.834Z,95.44
2022-09-30T00:49:36.985Z,95.64
2022-09-30T00:50:37.183Z,95.34
2022-09-30T00:51:37.360Z,95.44
2022-09-30T00:52:37.398Z,95.85
2022-09-30T00:53:37.625Z,95.44
2022-09-30T00:54:37.676Z,95.44
2022-09-30T00:55:37.807Z,95.75
2022-09-30T00:56:38.095Z,95.13
2022-09-30T00:57:38.080Z,95.13
2022-09-30T00:58:38.298Z,95.13
2022-09-30T00:59:38.382Z,95.44
2022-09-30T01:00:38.635Z,95.23
2022-09-30T01:01:38.836Z,95.44
2022-09-30T01:02:38.877Z,95.54
2022-09-30T01:03:39.100Z,95.54
2022-09-30T01:04:39.228Z,95.54
2022-09-30T01:05:39.396Z,95.54
2022-09-30T01:06:39.606Z,95.95
2022-09-30T01:07:39.720Z,95.44
2022-09-30T01:08:40.133Z,95.64
2022-09-30T01:09:40.100Z,95.64
2022-09-30T01:10:40.162Z,95.64
2022-09-30T01:11:40.309Z,95.64
2022-09-30T01:12:40.568Z,95.85
2022-09-30T01:13:40.654Z,95.75
2022-09-30T01:14:40.763Z,95.85
2022-09-30T01:15:40.916Z,95.75
2022-09-30T01:16:41.088Z,95.75
2022-09-30T01:17:41.283Z,95.75
2022-09-30T01:18:41.435Z,95.64
2022-09-30T01:19:41.530Z,95.70
2022-09-30T01:20:41.718Z,95.85
2022-09-30T01:21:41.908Z,95.54
2022-09-30T01:22:42.528Z,95.39
2022-09-30T01:23:42.593Z,95.54
2022-09-30T01:24:42.397Z,95.54
2022-09-30T01:25:42.554Z,95.39
2022-09-30T01:26:42.706Z,95.70
2022-09-30T01:27:42.848Z,95.50
2022-09-30T01:28:43.039Z,95.64
2022-09-30T01:29:43.211Z,95.64
2022-09-30T01:30:43.452Z,95.34
2022-09-30T01:31:43.568Z,95.75
2022-09-30T01:32:43.617Z,95.95
2022-09-30T01:33:43.892Z,95.60
2022-09-30T01:34:43.950Z,95.70
2022-09-30T01:35:44.128Z,95.70
2022-09-30T01:36:44.324Z,95.39
2022-09-30T01:37:44.481Z,95.60
2022-09-30T01:38:44.655Z,95.60
2022-09-30T01:39:44.779Z,95.29
2022-09-30T01:40:44.922Z,94.98
2022-09-30T01:41:45.121Z,94.98
2022-09-30T01:42:45.246Z,95.29
2022-09-30T01:43:45.407Z,95.39
2022-09-30T01:44:45.564Z,95.19
2022-09-30T01:45:45.709Z,94.93
2022-09-30T01:46:46.010Z,95.54
2022-09-30T01:47:45.993Z,95.80
2022-09-30T01:48:46.137Z,95.03
2022-09-30T01:49:46.307Z,95.23
2022-09-30T01:50:46.437Z,95.50
2022-09-30T01:51:46.644Z,94.98
2022-09-30T01:52:46.722Z,95.29
2022-09-30T01:53:46.874Z,95.60
2022-09-30T01:54:47.031Z,95.03
2022-09-30T01:55:47.186Z,94.98
2022-09-30T01:56:47.433Z,95.29
2022-09-30T01:57:47.479Z,95.50
2022-09-30T01:58:47.611Z,95.34
2022-09-30T01:59:47.802Z,95.13
2022-09-30T02:00:47.951Z,94.82
2022-09-30T02:01:48.192Z,94.82
2022-09-30T02:02:48.251Z,95.29
2022-09-30T02:03:48.457Z,95.23
2022-09-30T02:04:48.509Z,95.23
2022-09-30T02:05:48.669Z,95.03
2022-09-30T02:06:48.850Z,95.23
2022-09-30T02:07:49.010Z,94.93
2022-09-30T02:08:49.116Z,95.23
2022-09-30T02:09:49.438Z,95.44
2022-09-30T02:10:49.421Z,94.82
2022-09-30T02:11:49.563Z,94.73
2022-09-30T02:12:49.759Z,95.03
2022-09-30T02:13:49.874Z,93.80
2022-09-30T02:14:50.019Z,94.01
2022-09-30T02:15:50.217Z,94.15
2022-09-30T02:16:50.313Z,93.85
2022-09-30T02:17:50.459Z,94.01
2022-09-30T02:18:50.596Z,93.80
2022-09-30T02:19:50.773Z,94.11
2022-09-30T02:20:50.894Z,94.06
2022-09-30T02:21:51.104Z,94.15
2022-09-30T02:22:51.162Z,93.65
2022-09-30T02:23:51.316Z,93.65
2022-09-30T02:24:51.614Z,93.44
2022-09-30T02:25:51.586Z,93.44
2022-09-30T02:26:51.757Z,93.95
2022-09-30T02:27:51.905Z,93.33
2022-09-30T02:28:52.051Z,93.85
2022-09-30T02:29:52.374Z,94.15
2022-09-30T02:30:52.332Z,93.95
2022-09-30T02:31:52.724Z,94.46
2022-09-30T02:32:52.649Z,94.46
2022-09-30T02:33:52.787Z,94.46
2022-09-30T02:34:53.122Z,95.07
2022-09-30T02:35:53.082Z,94.87
2022-09-30T02:36:53.252Z,94.77
2022-09-30T02:37:53.447Z,95.07
2022-09-30T02:38:53.612Z,94.06
2022-09-30T02:39:53.722Z,94.20
2022-09-30T02:40:53.829Z,94.51
2022-09-30T02:41:53.986Z,94.56
2022-09-30T02:42:54.198Z,95.07
2022-09-30T02:43:54.266Z,95.02
2022-09-30T02:44:54.409Z,94.40
2022-09-30T02:45:54.552Z,94.51
2022-09-30T02:46:54.911Z,94.97
2022-09-30T02:47:54.877Z,94.92
2022-09-30T02:48:54.983Z,94.97
2022-09-30T02:49:55.143Z,94.92
2022-09-30T02:50:55.286Z,94.81
2022-09-30T02:51:55.455Z,95.18
2022-09-30T02:52:55.696Z,95.32
2022-09-30T02:53:55.712Z,95.43
2022-09-30T02:54:55.858Z,95.38
2022-09-30T02:55:56.010Z,95.43
2022-09-30T02:56:56.167Z,95.53
2022-09-30T02:57:56.557Z,95.07
2022-09-30T02:58:56.459Z,95.18
2022-09-30T02:59:56.579Z,95.28
2022-09-30T03:00:56.852Z,95.32
2022-09-30T03:01:56.974Z,95.18
2022-09-30T03:02:57.206Z,95.28
2022-09-30T03:03:57.135Z,95.22
2022-09-30T03:04:57.264Z,95.12
2022-09-30T03:05:57.407Z,95.43
2022-09-30T03:06:57.562Z,95.02
2022-09-30T03:07:57.717Z,95.22
2022-09-30T03:08:57.911Z,95.02
2022-09-30T03:09:57.958Z,95.32
2022-09-30T03:10:58.144Z,95.43
2022-09-30T03:11:58.246Z,95.43
2022-09-30T03:12:58.550Z,95.22
2022-09-30T03:13:58.523Z,95.32
2022-09-30T03:14:58.672Z,95.22
2022-09-30T03:15:58.865Z,95.32
2022-09-30T03:16:59.003Z,95.32
2022-09-30T03:17:59.116Z,95.43
2022-09-30T03:18:59.261Z,95.32
2022-09-30T03:19:59.406Z,95.18
2022-09-30T03:20:59.565Z,95.43
2022-09-30T03:21:59.781Z,95.43
2022-09-30T03:22:59.870Z,95.48
2022-09-30T03:24:00.055Z,95.43
2022-09-30T03:25:00.183Z,95.43
2022-09-30T03:26:00.336Z,95.43
2022-09-30T03:27:00.644Z,95.43
2022-09-30T03:28:00.705Z,95.32
2022-09-30T03:29:00.792Z,95.07
2022-09-30T03:30:00.945Z,95.12
2022-09-30T03:31:01.133Z,95.22
2022-09-30T03:32:01.415Z,95.22
2022-09-30T03:33:01.388Z,95.12
2022-09-30T03:34:01.578Z,95.53
2022-09-30T03:35:01.691Z,95.43
2022-09-30T03:36:01.839Z,95.02
2022-09-30T03:37:04.141Z,95.53
2022-09-30T03:38:02.141Z,95.02
2022-09-30T03:39:02.288Z,95.43
2022-09-30T03:40:02.471Z,94.92
2022-09-30T03:41:02.583Z,94.55
2022-09-30T03:42:02.730Z,95.02
2022-09-30T03:43:02.907Z,94.92
2022-09-30T03:44:03.027Z,94.96
2022-09-30T03:45:03.224Z,95.17
2022-09-30T03:46:03.349Z,95.17
2022-09-30T03:47:03.557Z,94.55
2022-09-30T03:48:03.664Z,93.93
2022-09-30T03:49:03.866Z,94.65
2022-09-30T03:50:04.042Z,94.60
2022-09-30T03:51:04.172Z,93.93
2022-09-30T03:52:04.345Z,94.14
2022-09-30T03:53:04.547Z,94.14
2022-09-30T03:54:04.708Z,93.93
2022-09-30T03:55:04.921Z,94.14
2022-09-30T03:56:05.072Z,94.04
2022-09-30T03:57:05.256Z,93.93
2022-09-30T03:58:05.425Z,94.45
2022-09-30T03:59:05.666Z,94.04
2022-09-30T04:00:06.001Z,93.93
2022-09-30T04:01:06.020Z,94.55
2022-09-30T04:02:06.240Z,94.55
2022-09-30T04:03:06.261Z,94.55
2022-09-30T04:04:06.398Z,94.24
2022-09-30T04:05:06.744Z,93.93
2022-09-30T04:06:06.682Z,93.73
2022-09-30T04:07:06.851Z,93.98
2022-09-30T04:08:07.005Z,94.04
2022-09-30T04:09:07.239Z,93.88
2022-09-30T04:10:07.360Z,93.88
2022-09-30T04:11:07.474Z,94.29
2022-09-30T04:12:07.633Z,94.55
2022-09-30T04:13:07.847Z,94.55
2022-09-30T04:14:07.975Z,94.65
2022-09-30T04:15:08.159Z,95.21
2022-09-30T04:16:08.310Z,94.70
2022-09-30T04:17:08.443Z,94.70
2022-09-30T04:18:08.618Z,95.17
2022-09-30T04:19:08.895Z,95.21
2022-09-30T04:20:08.977Z,95.21
2022-09-30T04:21:09.165Z,95.10
2022-09-30T04:22:09.358Z,94.70
2022-09-30T04:23:09.540Z,93.98
2022-09-30T04:24:09.769Z,94.59
2022-09-30T04:25:09.920Z,94.59
2022-09-30T04:26:10.175Z,94.70
2022-09-30T04:27:10.242Z,94.70
2022-09-30T04:28:10.399Z,95.21
2022-09-30T04:29:10.567Z,94.70
2022-09-30T04:30:10.757Z,94.90
2022-09-30T04:31:11.037Z,94.70
2022-09-30T04:32:11.100Z,95.21
2022-09-30T04:33:11.263Z,94.70
2022-09-30T04:34:11.433Z,95.21
2022-09-30T04:35:11.717Z,94.59
2022-09-30T04:36:11.802Z,93.98
2022-09-30T04:37:11.924Z,94.18
2022-09-30T04:38:12.075Z,95.10
2022-09-30T04:39:12.278Z,95.00
2022-09-30T04:40:12.422Z,95.10
2022-09-30T04:41:12.784Z,94.49
2022-09-30T04:42:12.745Z,95.00
2022-09-30T04:43:12.907Z,95.00
2022-09-30T04:44:13.075Z,95.21
2022-09-30T04:45:13.254Z,94.70
2022-09-30T04:46:13.541Z,94.59
2022-09-30T04:47:13.592Z,95.21
2022-09-30T04:48:13.758Z,94.59
2022-09-30T04:49:13.923Z,94.08
2022-09-30T04:50:14.283Z,95.41
2022-09-30T04:51:14.335Z,94.70
2022-09-30T04:52:14.451Z,95.51
2022-09-30T04:53:14.617Z,95.72
2022-09-30T04:54:14.925Z,95.41
2022-09-30T04:55:14.996Z,95.62
2022-09-30T04:56:15.162Z,95.41
2022-09-30T04:57:15.515Z,95.10
2022-09-30T04:58:15.489Z,95.31
2022-09-30T04:59:15.654Z,95.72
2022-09-30T05:00:15.828Z,95.37
2022-09-30T05:01:16.094Z,95.41
2022-09-30T05:02:16.350Z,95.41
2022-09-30T05:03:16.337Z,95.10
2022-09-30T05:04:16.519Z,95.31
2022-09-30T05:05:16.689Z,95.21
2022-09-30T05:06:16.866Z,95.21
2022-09-30T05:07:17.063Z,95.31
2022-09-30T05:08:17.392Z,95.26
2022-09-30T05:09:17.673Z,95.17
2022-09-30T05:10:17.542Z,95.47
2022-09-30T05:11:17.666Z,95.17
2022-09-30T05:12:17.827Z,95.31
2022-09-30T05:13:17.988Z,95.00
2022-09-30T05:14:18.282Z,95.41
2022-09-30T05:15:18.308Z,95.31
2022-09-30T05:16:18.590Z,95.41
2022-09-30T05:17:18.601Z,95.21
2022-09-30T05:18:18.761Z,95.37
2022-09-30T05:19:18.976Z,95.26
2022-09-30T05:20:21.309Z,95.37
2022-09-30T05:21:19.234Z,95.17
2022-09-30T05:22:19.382Z,95.51
2022-09-30T05:23:19.540Z,95.17
2022-09-30T05:24:19.746Z,95.31
2022-09-30T05:25:19.866Z,95.37
2022-09-30T05:26:20.093Z,95.41
2022-09-30T05:27:20.161Z,95.37
2022-09-30T05:28:20.309Z,95.26
2022-09-30T05:29:20.668Z,95.47
2022-09-30T05:30:20.602Z,95.41
2022-09-30T05:31:21.035Z,95.47
2022-09-30T05:32:20.965Z,95.17
2022-09-30T05:33:21.152Z,95.37
2022-09-30T05:34:21.495Z,95.37
2022-09-30T05:35:21.497Z,95.37
2022-09-30T05:36:21.672Z,95.37
2022-09-30T05:37:21.844Z,95.37
2022-09-30T05:38:21.997Z,95.37
2022-09-30T05:39:22.429Z,95.67
2022-09-30T05:40:22.287Z,95.17
2022-09-30T05:41:22.487Z,95.57
2022-09-30T05:42:22.596Z,95.47
2022-09-30T05:43:22.736Z,95.37
2022-09-30T05:44:22.931Z,95.37
2022-09-30T05:45:23.014Z,95.47
2022-09-30T05:46:23.193Z,95.37
2022-09-30T05:47:23.299Z,95.47
2022-09-30T05:48:23.443Z,95.53
2022-09-30T05:49:23.963Z,95.98
2022-09-30T05:50:23.731Z,94.85
2022-09-30T05:51:23.865Z,94.92
2022-09-30T05:52:24.076Z,95.43
2022-09-30T05:53:24.156Z,95.43
2022-09-30T05:54:24.396Z,95.26
2022-09-30T05:55:24.448Z,95.53
2022-09-30T05:56:24.622Z,95.43
2022-09-30T05:57:24.755Z,95.53
2022-09-30T05:58:24.911Z,95.32
2022-09-30T05:59:25.088Z,95.43
2022-09-30T06:00:25.218Z,95.53
2022-09-30T06:01:25.365Z,95.53
2022-09-30T06:02:25.631Z,95.84
2022-09-30T06:03:25.606Z,95.43
2022-09-30T06:04:25.763Z,95.43
2022-09-30T06:05:25.957Z,95.43
2022-09-30T06:06:26.070Z,95.53
2022-09-30T06:07:26.205Z,95.73
2022-09-30T06:08:26.354Z,95.12
2022-09-30T06:09:26.714Z,95.53
2022-09-30T06:10:26.630Z,95.53
2022-09-30T06:11:26.808Z,95.02
2022-09-30T06:12:26.960Z,95.43
2022-09-30T06:13:27.150Z,94.92
2022-09-30T06:14:27.376Z,95.73
2022-09-30T06:15:27.517Z,95.28
2022-09-30T06:16:27.843Z,95.28
2022-09-30T06:17:27.847Z,95.28
2022-09-30T06:18:28.011Z,95.28
2022-09-30T06:19:28.263Z,95.07
2022-09-30T06:20:28.285Z,95.18
2022-09-30T06:21:28.426Z,94.97
2022-09-30T06:22:28.546Z,95.28
2022-09-30T06:23:28.701Z,95.18
2022-09-30T06:24:29.112Z,95.28
2022-09-30T06:25:29.096Z,95.38
2022-09-30T06:26:29.198Z,95.28
2022-09-30T06:27:29.334Z,95.07
2022-09-30T06:28:29.505Z,95.28
2022-09-30T06:29:29.761Z,95.28
2022-09-30T06:30:34.900Z,95.28
2022-09-30T06:31:30.029Z,95.48
2022-09-30T06:32:30.140Z,95.18
2022-09-30T06:33:30.283Z,94.82
2022-09-30T06:34:30.514Z,95.34
2022-09-30T06:35:30.539Z,94.93
2022-09-30T06:36:30.683Z,95.18
2022-09-30T06:37:30.825Z,95.13
2022-09-30T06:38:30.964Z,95.03
2022-09-30T06:39:31.268Z,95.23
2022-09-30T06:40:31.237Z,95.23
2022-09-30T06:41:31.373Z,95.23
2022-09-30T06:42:31.546Z,95.34
2022-09-30T06:43:38.655Z,94.93
2022-09-30T06:44:32.605Z,95.03
2022-09-30T06:45:33.130Z,95.13
2022-09-30T06:46:32.110Z,95.23
2022-09-30T06:47:32.298Z,95.34
2022-09-30T06:48:38.126Z,95.29
2022-09-30T06:49:45.421Z,94.58
2022-09-30T06:50:32.720Z,94.68
2022-09-30T06:51:32.889Z,94.48
2022-09-30T06:52:33.046Z,94.89
2022-09-30T06:53:33.203Z,94.58
2022-09-30T06:54:33.389Z,94.58
2022-09-30T06:55:33.505Z,95.09
2022-09-30T06:56:33.792Z,94.48
2022-09-30T06:57:33.895Z,94.27
2022-09-30T06:58:33.987Z,93.86
2022-09-30T06:59:34.139Z,94.37
2022-09-30T07:00:34.339Z,94.98
2022-09-30T07:01:34.495Z,94.78
2022-09-30T07:02:34.790Z,94.89
2022-09-30T07:03:34.840Z,94.78
2022-09-30T07:04:34.964Z,95.39
2022-09-30T07:05:35.117Z,95.19
2022-09-30T07:06:35.283Z,95.29
2022-09-30T07:07:35.457Z,95.09
2022-09-30T07:08:35.642Z,94.89
2022-09-30T07:09:35.913Z,94.98
2022-09-30T07:10:35.923Z,95.04
2022-09-30T07:11:36.093Z,95.09
2022-09-30T07:12:36.277Z,95.09
2022-09-30T07:13:36.422Z,95.15
2022-09-30T07:14:36.731Z,95.09
2022-09-30T07:15:36.760Z,95.04
2022-09-30T07:16:37.013Z,95.04
2022-09-30T07:17:37.109Z,95.04
2022-09-30T07:18:37.234Z,95.15
2022-09-30T07:19:37.458Z,95.10
2022-09-30T07:20:37.535Z,95.20
2022-09-30T07:21:37.676Z,94.70
2022-09-30T07:22:37.809Z,94.74
2022-09-30T07:23:37.944Z,95.15
2022-09-30T07:24:38.231Z,94.79
2022-09-30T07:25:38.216Z,94.90
2022-09-30T07:26:38.358Z,94.70
2022-09-30T07:27:38.496Z,95.10
2022-09-30T07:28:38.658Z,95.10
2022-09-30T07:30:03.963Z,95.00
2022-09-30T07:30:38.896Z,95.20
2022-09-30T07:31:39.095Z,95.10
2022-09-30T07:32:39.170Z,95.10
2022-09-30T07:33:39.300Z,95.06
2022-09-30T07:34:39.530Z,95.06
2022-09-30T07:35:39.576Z,95.16
2022-09-30T07:36:39.721Z,94.45
2022-09-30T07:37:39.857Z,94.85
2022-09-30T07:38:39.974Z,95.06
2022-09-30T07:39:40.280Z,95.06
2022-09-30T07:40:40.253Z,94.81
2022-09-30T07:41:40.375Z,95.16
2022-09-30T07:42:40.506Z,94.81
2022-09-30T07:43:40.647Z,94.81
2022-09-30T07:44:40.853Z,95.01
2022-09-30T07:45:40.989Z,94.91
2022-09-30T07:46:41.068Z,94.81
2022-09-30T07:47:41.203Z,95.01
2022-09-30T07:48:41.335Z,94.87
2022-09-30T07:49:41.577Z,95.48
2022-09-30T07:50:41.603Z,95.37
2022-09-30T07:51:41.731Z,94.97
2022-09-30T07:52:41.867Z,94.87
2022-09-30T07:53:41.990Z,94.76
2022-09-30T07:54:46.675Z,94.92
2022-09-30T07:55:42.249Z,94.72
2022-09-30T07:57:08.785Z,94.97
2022-09-30T07:57:42.542Z,94.82
2022-09-30T07:58:42.712Z,95.03
2022-09-30T07:59:42.910Z,94.92
2022-09-30T08:00:43.434Z,94.82
2022-09-30T08:01:43.374Z,94.62
2022-09-30T08:02:43.339Z,95.03
2022-09-30T08:03:43.415Z,94.92
2022-09-30T08:04:44.555Z,95.13
2022-09-30T08:05:43.684Z,94.72
2022-09-30T08:06:43.845Z,94.88
2022-09-30T08:07:44.117Z,94.78
2022-09-30T08:08:44.065Z,95.08
2022-09-30T08:09:44.374Z,94.78
2022-09-30T08:10:44.339Z,94.68
2022-09-30T08:11:44.472Z,95.08
2022-09-30T08:12:44.639Z,94.37
2022-09-30T08:13:44.720Z,94.27
2022-09-30T08:14:44.882Z,94.07
2022-09-30T08:15:45.039Z,94.57
2022-09-30T08:16:45.203Z,94.07
2022-09-30T08:17:45.287Z,94.98
2022-09-30T08:18:45.386Z,94.23
2022-09-30T08:19:45.519Z,93.92
2022-09-30T08:20:45.790Z,94.84
2022-09-30T08:21:45.835Z,94.43
2022-09-30T08:22:45.903Z,94.53
2022-09-30T08:23:46.024Z,94.93
2022-09-30T08:24:46.143Z,94.93
2022-09-30T08:25:46.327Z,94.63
2022-09-30T08:26:46.443Z,94.73
2022-09-30T08:27:46.503Z,94.93
2022-09-30T08:28:46.611Z,94.84
2022-09-30T08:29:55.851Z,94.93
2022-09-30T08:30:46.904Z,94.79
2022-09-30T08:31:47.223Z,94.59
2022-09-30T08:32:47.095Z,94.79
2022-09-30T08:33:47.222Z,94.38
2022-09-30T08:34:47.336Z,93.98
2022-09-30T08:35:47.467Z,93.77
2022-09-30T08:36:47.738Z,94.69
2022-09-30T08:37:47.808Z,94.48
2022-09-30T08:38:47.919Z,94.59
2022-09-30T08:39:47.978Z,94.48
2022-09-30T08:40:48.127Z,94.28
2022-09-30T08:41:48.392Z,93.47
2022-09-30T08:42:51.753Z,94.69
2022-09-30T08:43:48.557Z,94.38
2022-09-30T08:44:48.735Z,94.79
2022-09-30T08:45:48.967Z,94.79
2022-09-30T08:46:49.170Z,94.74
2022-09-30T08:47:49.179Z,94.95
2022-09-30T08:48:49.320Z,95.05
2022-09-30T08:49:49.527Z,94.54
2022-09-30T08:50:49.614Z,94.54
2022-09-30T08:51:49.839Z,94.74
2022-09-30T08:52:50.147Z,94.95
2022-09-30T08:53:50.034Z,94.40
2022-09-30T08:54:50.179Z,93.93
2022-09-30T08:55:50.329Z,93.89
2022-09-30T08:56:50.502Z,93.63
2022-09-30T08:57:50.661Z,93.79
2022-09-30T08:58:50.777Z,94.40
2022-09-30T08:59:50.914Z,93.68
2022-09-30T09:00:51.123Z,94.20
2022-09-30T09:01:51.288Z,92.57
2022-09-30T09:02:51.521Z,93.28
2022-09-30T09:03:51.551Z,92.36
2022-09-30T09:04:51.658Z,92.36
2022-09-30T09:05:52.682Z,92.67
2022-09-30T09:06:51.928Z,92.57
2022-09-30T09:07:52.158Z,92.36
2022-09-30T09:08:52.203Z,92.87
2022-09-30T09:09:52.369Z,92.87
2022-09-30T09:10:52.576Z,92.16
2022-09-30T09:11:52.670Z,93.03
2022-09-30T09:12:52.822Z,93.38
2022-09-30T09:13:52.923Z,92.83
2022-09-30T09:14:53.063Z,92.42
2022-09-30T09:15:53.190Z,91.30
2022-09-30T09:16:53.438Z,90.84
2022-09-30T09:18:18.258Z,91.20
2022-09-30T09:18:53.657Z,92.72
2022-09-30T09:19:53.687Z,92.02
2022-09-30T09:20:53.878Z,91.71
2022-09-30T09:21:53.920Z,92.07
2022-09-30T09:22:54.086Z,91.10
2022-09-30T09:23:54.165Z,90.66
2022-09-30T09:24:54.273Z,90.55
2022-09-30T09:25:54.389Z,90.45
2022-09-30T09:26:54.493Z,91.30
2022-09-30T09:27:54.734Z,91.06
2022-09-30T09:28:54.714Z,90.75
2022-09-30T09:29:54.878Z,91.67
2022-09-30T09:30:54.954Z,91.26
2022-09-30T09:31:55.292Z,90.25
2022-09-30T09:32:55.217Z,90.05
2022-09-30T09:33:55.339Z,89.03
2022-09-30T09:34:55.468Z,89.74
2022-09-30T09:35:55.573Z,89.23
2022-09-30T09:36:55.683Z,89.94
2022-09-30T09:37:55.818Z,90.66
2022-09-30T09:38:56.056Z,90.35
2022-09-30T09:39:58.475Z,90.66
2022-09-30T09:40:56.177Z,89.90
2022-09-30T09:41:56.298Z,90.00
2022-09-30T09:42:56.419Z,89.70
2022-09-30T09:43:56.706Z,89.90
2022-09-30T09:44:56.678Z,89.29
2022-09-30T09:45:56.823Z,88.68
2022-09-30T09:46:56.920Z,88.68
2022-09-30T09:47:57.054Z,88.38
2022-09-30T09:48:57.253Z,88.58
2022-09-30T09:49:57.957Z,88.48
2022-09-30T09:50:57.459Z,87.73
2022-09-30T09:51:57.604Z,88.48
2022-09-30T09:52:57.731Z,88.78
2022-09-30T09:53:57.905Z,87.77
2022-09-30T09:54:58.049Z,88.38
2022-09-30T09:55:58.158Z,86.65
2022-09-30T09:56:58.317Z,86.45
2022-09-30T09:57:58.448Z,86.71
2022-09-30T09:58:58.593Z,86.71
2022-09-30T10:00:59.026Z,87.83
2022-09-30T10:01:59.129Z,87.83
2022-09-30T10:02:59.205Z,87.93
2022-09-30T10:03:59.431Z,88.03
2022-09-30T10:04:59.540Z,86.41
2022-09-30T10:05:59.656Z,86.51
2022-09-30T10:06:59.816Z,87.12
2022-09-30T10:07:59.951Z,87.12
2022-09-30T10:09:00.108Z,87.83
2022-09-30T10:10:00.310Z,87.12
2022-09-30T10:11:00.412Z,86.82
2022-09-30T10:12:00.557Z,86.91
2022-09-30T10:13:00.692Z,85.80
2022-09-30T10:14:00.826Z,87.52
2022-09-30T10:15:01.011Z,86.77
2022-09-30T10:16:01.234Z,86.88
2022-09-30T10:17:01.234Z,86.37
2022-09-30T10:18:01.340Z,86.41
2022-09-30T10:19:03.962Z,86.41
2022-09-30T10:20:01.584Z,86.16
2022-09-30T10:21:01.726Z,86.27
2022-09-30T10:22:01.799Z,87.28
2022-09-30T10:23:01.922Z,88.60
2022-09-30T10:24:02.026Z,88.60
2022-09-30T10:25:02.148Z,87.69
2022-09-30T10:26:02.295Z,85.82
2022-09-30T10:27:02.366Z,86.02
2022-09-30T10:28:02.537Z,86.16
2022-09-30T10:29:02.623Z,86.47
2022-09-30T10:30:02.705Z,84.44
2022-09-30T10:31:02.804Z,83.53
2022-09-30T10:32:02.997Z,84.44
2022-09-30T10:33:03.059Z,85.76
2022-09-30T10:34:03.228Z,85.62
2022-09-30T10:35:03.321Z,86.43
2022-09-30T10:36:03.460Z,87.04
2022-09-30T10:37:03.554Z,87.10
2022-09-30T10:38:03.690Z,86.79
2022-09-30T10:39:06.597Z,86.39
2022-09-30T10:40:03.944Z,86.39
2022-09-30T10:41:04.082Z,85.64
2022-09-30T10:42:04.251Z,84.47
2022-09-30T10:43:04.338Z,83.96
2022-09-30T10:44:04.469Z,83.86
2022-09-30T10:45:04.648Z,83.65
2022-09-30T10:46:25.134Z,83.41
2022-09-30T10:47:04.895Z,83.92
2022-09-30T10:48:04.955Z,84.47
2022-09-30T10:49:05.090Z,84.06
2022-09-30T10:50:05.213Z,83.45
2022-09-30T10:51:05.354Z,83.55
2022-09-30T10:52:05.515Z,82.95
2022-09-30T10:53:05.546Z,82.95
2022-09-30T10:54:05.639Z,83.25
2022-09-30T10:55:10.664Z,83.41
2022-09-30T10:56:05.825Z,83.61
2022-09-30T10:57:05.958Z,83.04
2022-09-30T10:58:06.002Z,81.93
2022-09-30T10:59:06.099Z,82.10
2022-09-30T11:00:06.178Z,80.82
2022-09-30T11:01:06.385Z,81.63
2022-09-30T11:02:06.607Z,82.44
2022-09-30T11:03:06.638Z,82.60
2022-09-30T11:04:06.619Z,83.65
2022-09-30T11:05:06.730Z,83.65
2022-09-30T11:06:06.863Z,81.79
2022-09-30T11:07:07.117Z,83.76
2022-09-30T11:08:07.119Z,83.61
2022-09-30T11:09:07.221Z,83.41
2022-09-30T11:10:07.342Z,84.12
2022-09-30T11:11:09.517Z,82.40
2022-09-30T11:12:07.655Z,83.11
2022-09-30T11:13:07.680Z,82.90
2022-09-30T11:14:07.782Z,83.31
2022-09-30T11:15:07.876Z,81.49
2022-09-30T11:16:08.057Z,81.09
2022-09-30T11:17:08.130Z,81.85
2022-09-30T11:18:08.152Z,81.90
2022-09-30T11:19:08.243Z,82.20
2022-09-30T11:20:08.435Z,81.59
2022-09-30T11:21:08.437Z,79.93
2022-09-30T11:22:08.557Z,78.35
2022-09-30T11:23:08.589Z,78.25
2022-09-30T11:24:08.719Z,78.89
2022-09-30T11:25:11.181Z,78.66
2022-09-30T11:26:08.866Z,78.75
2022-09-30T11:27:08.961Z,79.50
2022-09-30T11:28:09.146Z,79.60
2022-09-30T11:29:09.179Z,80.11
2022-09-30T11:30:09.290Z,80.11
2022-09-30T11:31:09.485Z,80.21
2022-09-30T11:32:09.547Z,80.21
2022-09-30T11:33:09.684Z,80.58
2022-09-30T11:34:09.801Z,81.59
2022-09-30T11:35:09.844Z,80.38
2022-09-30T11:36:09.936Z,81.79
2022-09-30T11:37:10.032Z,81.49
2022-09-30T11:38:10.126Z,81.79
2022-09-30T11:39:10.278Z,81.76
2022-09-30T11:40:10.362Z,80.84
2022-09-30T11:41:10.432Z,80.34
2022-09-30T11:42:10.631Z,80.34
2022-09-30T11:43:10.626Z,81.11
2022-09-30T11:44:10.851Z,76.90
2022-09-30T11:45:10.814Z,77.87
2022-09-30T11:46:10.984Z,79.90
2022-09-30T11:47:11.026Z,78.78
2022-09-30T11:48:11.114Z,76.46
2022-09-30T11:49:11.253Z,77.77
2022-09-30T11:50:11.513Z,76.93
2022-09-30T11:51:11.407Z,78.14
2022-09-30T11:52:11.518Z,78.04
2022-09-30T11:53:11.622Z,77.53
2022-09-30T11:54:11.719Z,77.33
2022-09-30T11:55:15.311Z,77.23
2022-09-30T11:56:11.956Z,77.53
2022-09-30T11:57:12.036Z,79.25
2022-09-30T11:58:39.445Z,77.90
2022-09-30T11:59:12.284Z,78.10
2022-09-30T12:00:12.444Z,76.89
2022-09-30T12:01:12.615Z,76.08
2022-09-30T12:02:12.674Z,76.79
2022-09-30T12:03:12.738Z,78.61
2022-09-30T12:04:12.806Z,79.01
2022-09-30T12:05:12.917Z,79.48
2022-09-30T12:06:13.055Z,79.17
2022-09-30T12:07:13.156Z,78.97
2022-09-30T12:08:13.372Z,78.97
2022-09-30T12:09:13.321Z,78.47
2022-09-30T12:10:13.425Z,78.84
2022-09-30T12:11:13.753Z,78.43
2022-09-30T12:12:16.555Z,75.60
2022-09-30T12:13:13.726Z,76.01
2022-09-30T12:14:13.831Z,76.42
2022-09-30T12:15:13.930Z,76.51
2022-09-30T12:16:14.278Z,76.01
2022-09-30T12:17:14.119Z,76.01
2022-09-30T12:18:14.221Z,76.72
2022-09-30T12:19:14.318Z,76.11
2022-09-30T12:20:14.485Z,76.51
2022-09-30T12:21:14.503Z,73.93
2022-09-30T12:22:14.598Z,75.13
2022-09-30T12:23:14.691Z,74.63
2022-09-30T12:24:14.792Z,75.64
2022-09-30T12:25:14.970Z,73.93
2022-09-30T12:26:15.041Z,74.33
2022-09-30T12:27:15.235Z,73.42
2022-09-30T12:28:15.440Z,74.43
2022-09-30T12:29:15.390Z,75.64
2022-09-30T12:30:15.515Z,75.34
2022-09-30T12:31:15.808Z,75.74
2022-09-30T12:32:16.005Z,74.84
2022-09-30T12:33:15.874Z,74.66
2022-09-30T12:34:15.982Z,75.68
2022-09-30T12:35:16.079Z,74.26
2022-09-30T12:36:16.194Z,73.96
2022-09-30T12:37:16.450Z,73.96
2022-09-30T12:38:16.431Z,74.57
2022-09-30T12:39:16.553Z,75.17
2022-09-30T12:40:16.678Z,75.88
2022-09-30T12:41:16.814Z,75.88
2022-09-30T12:42:16.964Z,77.09
2022-09-30T12:43:17.216Z,75.98
2022-09-30T12:44:17.168Z,74.46
2022-09-30T12:45:17.290Z,75.17
2022-09-30T12:46:17.532Z,74.90
2022-09-30T12:47:17.553Z,73.49
2022-09-30T12:48:17.914Z,73.99
2022-09-30T12:49:17.721Z,74.90
2022-09-30T12:50:17.805Z,76.02
2022-09-30T12:51:17.896Z,75.92
2022-09-30T12:52:18.022Z,76.12
2022-09-30T12:53:18.063Z,75.71
2022-09-30T12:54:18.197Z,76.32
2022-09-30T12:55:18.269Z,76.62